Time;durP1;ratioP1;P1;durP2;ratioP2;P2;SDS_P1;SDS_P2;PMS_P1;PMS_P2;Temp;Humidity;BMP_temperature;BMP_pressure;BME280_temperature;BME280_humidity;BME280_pressure;Samples;Min_cycle;Max_cycle;Signal;HPM_P1;HPM_P2
2023/03/30 00:00:21;;;;;;;27.33;9.90;;;3.20;99.90;;;;;;5028977;28;20025;-79
2023/03/30 00:02:49;;;;;;;26.40;10.68;;;3.20;99.90;;;;;;5044130;28;20564;-79
2023/03/30 00:05:16;;;;;;;43.25;17.52;;;3.30;99.90;;;;;;5029051;28;20109;-78
2023/03/30 00:07:44;;;;;;;29.00;11.70;;;3.30;99.90;;;;;;5028964;28;20437;-78
2023/03/30 00:10:19;;;;;;;17.00;7.07;;;3.30;99.90;;;;;;5029064;28;20069;-78
2023/03/30 00:12:46;;;;;;;17.05;7.05;;;3.40;99.90;;;;;;5044294;28;20033;-80
2023/03/30 00:15:14;;;;;;;17.83;8.13;;;3.30;99.90;;;;;;5028938;28;20017;-76
2023/03/30 00:17:40;;;;;;;17.38;6.93;;;3.30;99.90;;;;;;5028572;28;20033;-78
2023/03/30 00:20:10;;;;;;;;;;;3.30;99.90;;;;;;5029100;28;20080;-79
2023/03/30 00:22:37;;;;;;;14.27;7.45;;;3.30;99.90;;;;;;5043812;28;19913;-78
2023/03/30 00:25:05;;;;;;;14.65;7.68;;;3.30;99.90;;;;;;5028828;28;20038;-79
2023/03/30 00:27:30;;;;;;;23.73;12.18;;;3.40;99.90;;;;;;5028601;28;20022;-79
2023/03/30 00:29:56;;;;;;;;;;;3.40;99.90;;;;;;5027693;28;20409;-81
2023/03/30 00:32:22;;;;;;;32.22;13.63;;;3.50;99.90;;;;;;5029280;28;19909;-80
2023/03/30 00:34:47;;;;;;;35.58;16.48;;;3.50;99.90;;;;;;5029086;28;20042;-78
2023/03/30 00:37:14;;;;;;;;;;;3.50;99.90;;;;;;5028865;28;20560;-78
2023/03/30 00:39:40;;;;;;;32.08;14.18;;;3.50;99.90;;;;;;5028435;28;19913;-78
2023/03/30 00:42:05;;;;;;;;;;;3.50;99.90;;;;;;5028669;28;20040;-78
2023/03/30 00:45:09;;;;;;;34.97;14.32;;;3.50;99.90;;;;;;5043790;28;20397;-77
2023/03/30 00:47:42;;;;;;;32.75;14.50;;;3.50;99.90;;;;;;5028379;28;20033;-78
2023/03/30 00:50:08;;;;;;;35.28;14.90;;;3.50;99.90;;;;;;5031653;28;20022;-76
2023/03/30 00:52:36;;;;;;;26.13;10.85;;;3.50;99.90;;;;;;5032437;28;20033;-77
2023/03/30 00:55:06;;;;;;;22.60;10.38;;;3.60;99.90;;;;;;5032426;28;20125;-77
2023/03/30 00:57:35;;;;;;;21.10;9.13;;;3.60;99.90;;;;;;5032177;28;20553;-78
2023/03/30 01:00:01;;;;;;;23.40;9.52;;;3.60;99.90;;;;;;5032732;28;20033;-78
2023/03/30 01:02:29;;;;;;;;;;;3.70;99.90;;;;;;5032690;28;20049;-77
2023/03/30 01:04:56;;;;;;;24.65;9.43;;;3.60;99.90;;;;;;5032462;28;19909;-76
2023/03/30 01:07:23;;;;;;;16.75;7.90;;;3.70;99.90;;;;;;5047510;28;20031;-78
2023/03/30 01:09:51;;;;;;;18.13;9.43;;;3.60;99.90;;;;;;5047614;28;20124;-77
2023/03/30 01:12:17;;;;;;;21.38;9.52;;;3.60;99.90;;;;;;5047476;28;20045;-77
2023/03/30 01:14:42;;;;;;;;;;;3.70;99.90;;;;;;5031054;28;20029;-78
2023/03/30 01:17:33;;;;;;;17.25;6.97;;;3.70;99.90;;;;;;5047299;28;19909;-78
2023/03/30 01:20:16;;;;;;;16.17;7.40;;;3.70;99.90;;;;;;5031883;28;20434;-78
2023/03/30 01:22:45;;;;;;;20.20;9.48;;;3.70;99.90;;;;;;5031986;28;20069;-79
2023/03/30 01:25:55;;;;;;;21.60;9.55;;;3.60;99.90;;;;;;5031650;28;20025;-79
2023/03/30 01:28:40;;;;;;;18.90;8.45;;;3.60;99.90;;;;;;5029450;28;20544;-78
2023/03/30 01:31:24;;;;;;;23.15;9.20;;;3.60;99.90;;;;;;5047243;28;20033;-78
2023/03/30 01:34:02;;;;;;;17.80;8.90;;;3.60;99.90;;;;;;5031709;28;20040;-77
2023/03/30 01:36:49;;;;;;;15.43;7.10;;;3.50;99.90;;;;;;5031542;28;20099;-77
2023/03/30 01:39:33;;;;;;;17.88;8.40;;;3.50;99.90;;;;;;5031548;28;20025;-77
2023/03/30 01:42:21;;;;;;;16.00;6.90;;;3.40;99.90;;;;;;5031928;28;20409;-78
2023/03/30 01:45:05;;;;;;;14.93;6.35;;;3.30;99.90;;;;;;5031645;28;20034;-77
2023/03/30 01:47:44;;;;;;;12.70;6.15;;;3.20;99.90;;;;;;5031355;28;20014;-78
2023/03/30 01:50:25;;;;;;;14.35;6.57;;;3.20;99.90;;;;;;5046648;28;20083;-76
2023/03/30 01:52:54;;;;;;;15.98;7.38;;;3.10;99.90;;;;;;5031516;28;20458;-77
2023/03/30 01:55:36;;;;;;;19.15;8.10;;;3.10;99.90;;;;;;5031265;28;20037;-78
2023/03/30 01:58:38;;;;;;;12.70;5.63;;;3.00;99.90;;;;;;5031516;28;20076;-77
2023/03/30 02:01:09;;;;;;;11.50;5.88;;;3.00;99.90;;;;;;5030067;28;20079;-76
2023/03/30 02:03:38;;;;;;;17.40;5.95;;;2.90;99.90;;;;;;5031153;28;20025;-77
2023/03/30 02:06:09;;;;;;;13.23;6.82;;;2.80;99.90;;;;;;5031083;28;20083;-77
2023/03/30 02:08:36;;;;;;;15.95;8.35;;;2.80;99.90;;;;;;5030959;28;20021;-77
2023/03/30 02:11:02;;;;;;;12.95;6.68;;;2.60;99.90;;;;;;5031083;28;20025;-77
2023/03/30 02:13:29;;;;;;;;;;;2.60;99.90;;;;;;5031349;28;20115;-77
2023/03/30 02:15:59;;;;;;;;;;;2.50;99.90;;;;;;5031442;28;19905;-76
2023/03/30 02:18:25;;;;;;;12.32;6.10;;;2.50;99.90;;;;;;5046433;28;19951;-77
2023/03/30 02:20:52;;;;;;;13.02;5.00;;;2.50;99.90;;;;;;5030839;28;20045;-77
2023/03/30 02:23:20;;;;;;;9.40;4.15;;;2.60;99.90;;;;;;5030853;28;20033;-77
2023/03/30 02:25:45;;;;;;;11.27;4.53;;;2.70;99.90;;;;;;5030970;28;20406;-77
2023/03/30 02:28:11;;;;;;;;;;;2.90;99.90;;;;;;5030995;28;20564;-77
2023/03/30 02:30:43;;;;;;;14.43;3.95;;;3.00;99.90;;;;;;5031053;28;19924;-76
2023/03/30 02:33:23;;;;;;;9.05;4.13;;;3.10;99.90;;;;;;5046015;28;20036;-77
2023/03/30 02:36:33;;;;;;;12.63;4.90;;;3.10;99.90;;;;;;5030446;28;20154;-77
2023/03/30 02:39:12;;;;;;;7.45;3.58;;;3.20;99.90;;;;;;5029695;28;20040;-78
2023/03/30 02:42:20;;;;;;;10.75;4.97;;;3.20;99.90;;;;;;5030106;28;20038;-78
2023/03/30 02:44:54;;;;;;;9.00;4.00;;;3.20;99.90;;;;;;5029486;28;20037;-77
2023/03/30 02:47:50;;;;;;;9.80;4.93;;;3.30;99.90;;;;;;5030053;28;20029;-77
2023/03/30 02:50:32;;;;;;;11.55;3.80;;;3.40;99.90;;;;;;5030220;28;20018;-77
2023/03/30 02:53:11;;;;;;;9.07;3.53;;;3.50;99.90;;;;;;5030122;28;20025;-77
2023/03/30 02:55:46;;;;;;;9.43;4.07;;;3.50;99.90;;;;;;5029979;28;20057;-77
2023/03/30 02:58:29;;;;;;;8.98;4.15;;;3.50;99.90;;;;;;5028753;28;20482;-76
2023/03/30 03:01:16;;;;;;;12.00;5.03;;;3.60;99.90;;;;;;5030100;28;20111;-78
2023/03/30 03:03:46;;;;;;;9.82;5.25;;;3.50;99.90;;;;;;5029960;28;20030;-80
2023/03/30 03:06:13;;;;;;;12.27;5.20;;;3.50;99.90;;;;;;5030605;28;20031;-78
2023/03/30 03:08:42;;;;;;;9.15;5.05;;;3.40;99.90;;;;;;5030330;28;20490;-77
2023/03/30 03:11:08;;;;;;;15.25;4.82;;;3.40;99.90;;;;;;5029881;28;20124;-77
2023/03/30 03:13:38;;;;;;;11.57;5.53;;;3.40;99.90;;;;;;5028780;28;20561;-75
2023/03/30 03:16:06;;;;;;;10.88;5.80;;;3.40;99.90;;;;;;5044944;28;20091;-76
2023/03/30 03:18:33;;;;;;;15.73;7.38;;;3.40;99.90;;;;;;5029731;28;20075;-77
2023/03/30 03:20:59;;;;;;;11.85;5.45;;;3.40;99.90;;;;;;5029761;28;20498;-76
2023/03/30 03:23:25;;;;;;;;;;;3.60;99.90;;;;;;5045345;28;20102;-79
2023/03/30 03:25:51;;;;;;;15.35;7.63;;;3.60;99.90;;;;;;5029490;28;20365;-77
2023/03/30 03:28:16;;;;;;;;;;;3.60;99.90;;;;;;5030109;28;20505;-75
2023/03/30 03:30:42;;;;;;;21.25;6.30;;;3.70;99.90;;;;;;5029590;28;19909;-76
2023/03/30 03:33:08;;;;;;;;;;;4.00;99.90;;;;;;5029842;28;20041;-78
2023/03/30 03:35:33;;;;;;;13.90;5.40;;;4.00;99.90;;;;;;5044628;28;19924;-79
2023/03/30 03:37:59;;;;;;;;;;;4.00;99.90;;;;;;5045053;28;20040;-78
2023/03/30 03:40:25;;;;;;;9.70;3.78;;;4.10;99.90;;;;;;5044507;28;19905;-79
2023/03/30 03:42:50;;;;;;;;;;;4.00;99.90;;;;;;5029875;28;20401;-78
2023/03/30 03:45:16;;;;;;;8.32;3.33;;;3.90;99.90;;;;;;5044233;28;20451;-77
2023/03/30 03:47:41;;;;;;;;;;;3.80;99.90;;;;;;5029505;28;20410;-77
2023/03/30 03:50:08;;;;;;;11.25;3.80;;;3.80;99.90;;;;;;5029216;28;19963;-77
2023/03/30 03:52:35;;;;;;;8.23;3.70;;;3.70;99.90;;;;;;5029032;28;20021;-77
2023/03/30 03:55:03;;;;;;;13.10;3.88;;;3.60;99.90;;;;;;5029467;28;20494;-78
2023/03/30 03:57:28;;;;;;;11.10;3.72;;;3.50;99.90;;;;;;5028874;28;20053;-78
2023/03/30 03:59:56;;;;;;;;;;;3.50;99.90;;;;;;5044765;28;20455;-77
2023/03/30 04:02:22;;;;;;;24.35;10.07;;;3.40;99.90;;;;;;5028932;28;19920;-77
2023/03/30 04:04:49;;;;;;;;;;;3.30;99.90;;;;;;5029667;28;20025;-76
2023/03/30 04:07:14;;;;;;;20.85;9.95;;;3.20;99.90;;;;;;5028941;28;19923;-76
2023/03/30 04:09:40;;;;;;;;;;;3.10;99.90;;;;;;5029096;28;20021;-76
2023/03/30 04:12:05;;;;;;;12.95;5.85;;;3.00;99.90;;;;;;5028884;28;20280;-76
2023/03/30 04:14:33;;;;;;;;;;;2.90;99.90;;;;;;5044722;28;20033;-76
2023/03/30 04:16:59;;;;;;;13.63;7.25;;;2.90;99.90;;;;;;5028706;28;19909;-77
2023/03/30 04:19:26;;;;;;;;;;;2.90;99.90;;;;;;5028839;28;20552;-77
2023/03/30 04:21:54;;;;;;;15.40;8.48;;;2.80;99.90;;;;;;5028438;28;19920;-76
2023/03/30 04:24:21;;;;;;;16.60;8.10;;;2.90;99.90;;;;;;5043562;28;20029;-76
2023/03/30 04:26:47;;;;;;;14.60;7.30;;;3.00;99.90;;;;;;5043746;28;20084;-76
2023/03/30 04:29:16;;;;;;;12.48;5.25;;;3.10;99.90;;;;;;5043868;28;20029;-77
2023/03/30 04:31:45;;;;;;;10.95;4.72;;;3.10;99.90;;;;;;5043773;28;20091;-78
2023/03/30 04:34:14;;;;;;;12.82;4.95;;;3.20;99.90;;;;;;5028213;28;20026;-77
2023/03/30 04:36:43;;;;;;;10.40;4.55;;;3.30;99.90;;;;;;5028214;28;20087;-77
2023/03/30 04:39:10;;;;;;;9.35;4.38;;;3.40;99.90;;;;;;5028410;28;20493;-77
2023/03/30 04:41:36;;;;;;;15.88;6.93;;;3.50;99.90;;;;;;5028228;28;20042;-79
2023/03/30 04:44:11;;;;;;;16.38;7.65;;;3.60;99.90;;;;;;5028520;28;20031;-78
2023/03/30 04:46:37;;;;;;;16.45;6.25;;;3.70;99.90;;;;;;5027691;28;20060;-80
2023/03/30 04:49:03;;;;;;;;;;;3.70;99.90;;;;;;5043129;28;20126;-79
2023/03/30 04:51:29;;;;;;;13.98;7.90;;;3.80;99.90;;;;;;5026584;28;19911;-79
2023/03/30 04:53:55;;;;;;;19.27;7.78;;;3.80;99.90;;;;;;5041495;28;20091;-78
2023/03/30 04:56:20;;;;;;;;;;;4.00;99.90;;;;;;5026885;28;20033;-78
2023/03/30 04:58:46;;;;;;;13.00;6.20;;;4.10;99.90;;;;;;5041679;28;20301;-76
2023/03/30 05:01:12;;;;;;;;;;;4.20;99.90;;;;;;5026709;28;20118;-78
2023/03/30 05:03:38;;;;;;;11.35;5.32;;;4.30;99.90;;;;;;5026197;28;19913;-77
2023/03/30 05:06:04;;;;;;;;;;;4.40;99.90;;;;;;5026784;28;20787;-79
2023/03/30 05:08:31;;;;;;;31.38;14.55;;;4.60;99.90;;;;;;5041079;28;19984;-77
2023/03/30 05:11:01;;;;;;;35.72;15.98;;;4.80;99.90;;;;;;5026558;28;20807;-76
2023/03/30 05:13:27;;;;;;;29.80;13.10;;;5.00;99.90;;;;;;5024665;28;20059;-76
2023/03/30 05:15:54;;;;;;;18.50;8.90;;;5.10;99.90;;;;;;5026504;28;20033;-78
2023/03/30 05:18:20;;;;;;;20.88;9.40;;;5.30;99.90;;;;;;5027701;28;20105;-77
2023/03/30 05:20:46;;;;;;;;;;;5.50;99.90;;;;;;5028167;28;20137;-76
2023/03/30 05:23:11;;;;;;;21.20;8.57;;;5.60;99.90;;;;;;5027946;28;19905;-76
2023/03/30 05:25:37;;;;;;;21.27;8.65;;;5.70;99.90;;;;;;5042701;28;20033;-76
2023/03/30 05:28:03;;;;;;;;;;;5.80;99.90;;;;;;5027172;28;20032;-76
2023/03/30 05:30:28;;;;;;;35.17;17.55;;;5.80;99.90;;;;;;5042979;28;19909;-77
2023/03/30 05:32:54;;;;;;;18.70;8.70;;;5.90;99.90;;;;;;5027933;28;20124;-79
2023/03/30 05:35:20;;;;;;;17.90;8.10;;;6.00;99.90;;;;;;5043073;28;20057;-75
2023/03/30 05:37:47;;;;;;;;;;;6.20;99.90;;;;;;5047299;28;20021;-78
2023/03/30 05:40:13;;;;;;;9.65;5.57;;;6.40;99.90;;;;;;5032105;28;20006;-77
2023/03/30 05:42:38;;;;;;;;;;;6.60;99.90;;;;;;5030828;28;20577;-78
2023/03/30 05:45:04;;;;;;;20.23;7.78;;;6.80;99.90;;;;;;5031478;28;19983;-76
2023/03/30 05:47:30;;;;;;;58.55;31.67;;;7.00;98.10;;;;;;5030980;28;20036;-77
2023/03/30 05:49:56;;;;;;;;;;;7.10;94.40;;;;;;5031863;28;20108;-77
2023/03/30 05:52:22;;;;;;;35.70;17.77;;;7.10;90.20;;;;;;5046647;28;19909;-76
2023/03/30 05:54:48;;;;;;;26.25;13.73;;;7.00;91.20;;;;;;5031248;28;20071;-76
2023/03/30 05:57:13;;;;;;;;;;;6.90;92.20;;;;;;5030051;28;20038;-76
2023/03/30 05:59:39;;;;;;;25.83;12.15;;;6.80;90.50;;;;;;5030650;28;19905;-77
2023/03/30 06:02:05;;;;;;;;;;;6.70;91.30;;;;;;5029943;28;20065;-75
2023/03/30 06:04:32;;;;;;;12.57;6.18;;;6.80;92.40;;;;;;5030910;28;19927;-77
2023/03/30 06:06:58;;;;;;;13.82;6.28;;;6.80;91.50;;;;;;5030986;28;20177;-77
2023/03/30 06:09:25;;;;;;;;;;;6.80;93.10;;;;;;5046542;28;20116;-78
2023/03/30 06:11:51;;;;;;;12.07;5.63;;;6.90;92.60;;;;;;5046053;28;19909;-75
2023/03/30 06:14:17;;;;;;;10.85;5.97;;;6.90;93.10;;;;;;5031194;28;20042;-77
2023/03/30 06:16:43;;;;;;;;;;;6.90;92.90;;;;;;5031248;28;20044;-78
2023/03/30 06:19:08;;;;;;;11.68;5.47;;;7.00;91.60;;;;;;5045812;28;20262;-77
2023/03/30 06:21:34;;;;;;;15.65;6.18;;;7.10;91.40;;;;;;5030521;28;20037;-80
2023/03/30 06:24:00;;;;;;;19.42;6.40;;;7.10;91.10;;;;;;5030737;28;20091;-78
2023/03/30 06:26:25;;;;;;;;;;;7.10;91.20;;;;;;5031182;28;20037;-77
2023/03/30 06:28:51;;;;;;;10.77;4.93;;;7.10;92.00;;;;;;5030448;28;19905;-79
2023/03/30 06:31:16;;;;;;;;;;;7.20;92.60;;;;;;5031026;28;20087;-79
2023/03/30 06:33:43;;;;;;;14.07;5.82;;;7.40;91.80;;;;;;5030258;28;19905;-79
2023/03/30 06:36:11;;;;;;;11.98;5.93;;;7.50;90.80;;;;;;5045215;28;20517;-79
2023/03/30 06:38:36;;;;;;;12.82;6.15;;;7.60;90.60;;;;;;5030403;28;20033;-79
2023/03/30 06:41:03;;;;;;;;;;;7.80;88.90;;;;;;5030493;28;20495;-78
2023/03/30 06:43:29;;;;;;;10.57;5.80;;;8.00;87.80;;;;;;5030152;28;19916;-79
2023/03/30 06:45:55;;;;;;;14.32;6.68;;;8.10;85.10;;;;;;5030171;28;20652;-80
2023/03/30 06:48:22;;;;;;;21.65;6.30;;;8.20;86.00;;;;;;5045348;28;20475;-76
2023/03/30 06:50:53;;;;;;;10.27;5.68;;;8.40;85.40;;;;;;5045429;28;20029;-76
2023/03/30 06:53:20;;;;;;;11.73;6.03;;;8.60;83.60;;;;;;5044934;28;20036;-76
2023/03/30 06:55:56;;;;;;;9.13;5.38;;;8.90;80.90;;;;;;5045505;28;20029;-76
2023/03/30 06:58:22;;;;;;;12.68;5.95;;;9.20;80.00;;;;;;5045591;28;20037;-77
2023/03/30 07:00:48;;;;;;;10.63;5.15;;;9.70;76.80;;;;;;5029688;28;20494;-78
2023/03/30 07:03:15;;;;;;;;;;;10.30;75.80;;;;;;5045423;28;20021;-76
2023/03/30 07:05:41;;;;;;;;;;;10.80;69.50;;;;;;5030288;28;19951;-78
2023/03/30 07:08:07;;;;;;;9.18;4.75;;;11.20;65.70;;;;;;5029720;28;19953;-79
2023/03/30 07:10:32;;;;;;;;;;;11.10;66.40;;;;;;5045491;28;20040;-77
2023/03/30 07:12:58;;;;;;;10.38;5.07;;;11.00;67.40;;;;;;5028397;28;19912;-77
2023/03/30 07:15:24;;;;;;;;;;;11.00;67.40;;;;;;5045294;28;20047;-76
2023/03/30 07:17:50;;;;;;;16.33;8.18;;;11.10;66.80;;;;;;5044829;28;19905;-77
2023/03/30 07:20:16;;;;;;;15.50;5.95;;;11.00;66.70;;;;;;5029438;28;20124;-77
2023/03/30 07:22:42;;;;;;;;;;;10.90;66.10;;;;;;5029946;28;20109;-77
2023/03/30 07:25:08;;;;;;;11.07;6.07;;;10.90;66.60;;;;;;5029511;28;20765;-77
2023/03/30 07:27:36;;;;;;;10.15;6.03;;;10.90;66.60;;;;;;5044765;28;20033;-77
2023/03/30 07:30:04;;;;;;;13.35;4.78;;;11.10;66.60;;;;;;5028685;28;20025;-76
2023/03/30 07:32:30;;;;;;;11.07;6.35;;;11.30;66.00;;;;;;5044906;28;20052;-77
2023/03/30 07:34:56;;;;;;;;;;;11.40;65.00;;;;;;5029451;28;20025;-77
2023/03/30 07:37:22;;;;;;;14.88;7.72;;;11.50;63.60;;;;;;5029177;28;20308;-77
2023/03/30 07:39:48;;;;;;;;;;;11.50;63.90;;;;;;5044852;28;20140;-78
2023/03/30 07:42:13;;;;;;;14.45;6.32;;;11.50;64.30;;;;;;5044478;28;19913;-77
2023/03/30 07:44:39;;;;;;;;;;;11.50;62.80;;;;;;5045068;28;20027;-77
2023/03/30 07:47:05;;;;;;;13.93;6.65;;;11.40;64.50;;;;;;5029101;28;20365;-78
2023/03/30 07:49:31;;;;;;;12.10;6.30;;;11.60;63.70;;;;;;5029205;28;20478;-80
2023/03/30 07:51:58;;;;;;;15.75;6.07;;;11.80;63.80;;;;;;5029084;28;20029;-78
2023/03/30 07:54:24;;;;;;;13.13;5.28;;;12.00;62.60;;;;;;5029157;28;20081;-78
2023/03/30 07:56:51;;;;;;;8.98;4.95;;;12.10;62.20;;;;;;5044226;28;20025;-77
2023/03/30 07:59:22;;;;;;;17.77;7.32;;;11.80;61.40;;;;;;5043726;28;20474;-78
2023/03/30 08:01:53;;;;;;;13.05;6.80;;;11.70;63.30;;;;;;5028994;28;20565;-77
2023/03/30 08:04:20;;;;;;;11.48;6.00;;;11.90;62.70;;;;;;5028984;28;20021;-78
2023/03/30 08:06:46;;;;;;;11.65;5.35;;;12.00;61.80;;;;;;5044185;28;20395;-76
2023/03/30 08:09:12;;;;;;;10.40;4.32;;;12.30;62.80;;;;;;5044056;28;20071;-77
2023/03/30 08:11:38;;;;;;;8.23;4.53;;;12.70;62.60;;;;;;5028624;28;20029;-78
2023/03/30 08:14:04;;;;;;;10.57;4.93;;;13.10;59.00;;;;;;5029302;28;20112;-77
2023/03/30 08:16:31;;;;;;;12.48;5.35;;;12.70;58.70;;;;;;5044684;28;20033;-76
2023/03/30 08:18:56;;;;;;;9.27;5.40;;;12.30;59.90;;;;;;5044074;28;20036;-77
2023/03/30 08:21:24;;;;;;;;;;;12.00;61.70;;;;;;5029129;28;20030;-77
2023/03/30 08:23:51;;;;;;;10.77;6.38;;;11.80;62.10;;;;;;5028739;28;20441;-77
2023/03/30 08:26:17;;;;;;;9.93;5.35;;;11.60;63.10;;;;;;5028605;28;20525;-76
2023/03/30 08:28:42;;;;;;;;;;;11.50;64.30;;;;;;5029204;28;20025;-78
2023/03/30 08:31:09;;;;;;;9.95;5.82;;;11.40;64.70;;;;;;5043798;28;19940;-77
2023/03/30 08:33:35;;;;;;;11.02;5.50;;;11.40;64.90;;;;;;5043773;28;20043;-77
2023/03/30 08:36:02;;;;;;;10.05;4.95;;;11.30;64.20;;;;;;5043547;28;20048;-77
2023/03/30 08:38:28;;;;;;;15.07;6.78;;;11.10;65.50;;;;;;5043775;28;20040;-77
2023/03/30 08:40:54;;;;;;;;;;;11.00;66.30;;;;;;5028728;28;20033;-77
2023/03/30 08:43:48;;;;;;;15.90;5.82;;;10.90;67.10;;;;;;5043648;28;19931;-77
2023/03/30 08:46:16;;;;;;;11.00;6.10;;;10.80;66.30;;;;;;5043777;28;20053;-77
2023/03/30 08:48:43;;;;;;;14.60;6.05;;;10.50;67.90;;;;;;5028393;28;20030;-76
2023/03/30 08:51:27;;;;;;;14.25;5.80;;;10.40;68.10;;;;;;5027857;28;20409;-75
2023/03/30 08:53:56;;;;;;;9.05;5.22;;;10.30;69.40;;;;;;5028161;28;20056;-77
2023/03/30 08:56:30;;;;;;;17.55;8.88;;;10.20;70.40;;;;;;5028475;28;20438;-77
2023/03/30 08:59:27;;;;;;;13.98;8.10;;;10.20;70.50;;;;;;5028328;28;20022;-78
2023/03/30 09:02:10;;;;;;;8.93;5.03;;;10.10;71.50;;;;;;5028179;28;20087;-77
2023/03/30 09:05:09;;;;;;;9.82;5.15;;;10.00;71.10;;;;;;5043685;28;20036;-77
2023/03/30 09:07:50;;;;;;;14.88;6.45;;;9.90;71.80;;;;;;5043487;28;20576;-77
2023/03/30 09:10:18;;;;;;;11.93;6.45;;;9.90;72.20;;;;;;5045430;28;20690;-77
2023/03/30 09:13:00;;;;;;;13.65;6.78;;;10.00;73.40;;;;;;5047402;28;20544;-75
2023/03/30 09:15:55;;;;;;;10.85;6.38;;;10.00;74.60;;;;;;5047094;28;20026;-75
2023/03/30 09:18:28;;;;;;;14.48;6.65;;;10.10;75.90;;;;;;5030532;28;20037;-77
2023/03/30 09:20:58;;;;;;;14.75;6.13;;;10.20;76.50;;;;;;5047231;28;20033;-76
2023/03/30 09:23:28;;;;;;;11.38;5.32;;;10.40;77.30;;;;;;5031836;28;20030;-77
2023/03/30 09:26:20;;;;;;;9.27;5.80;;;10.50;75.70;;;;;;5047210;28;20573;-76
2023/03/30 09:28:55;;;;;;;10.55;5.60;;;10.80;75.40;;;;;;5046976;28;20060;-77
2023/03/30 09:31:43;;;;;;;21.45;9.90;;;11.00;73.70;;;;;;5046589;28;20021;-77
2023/03/30 09:34:29;;;;;;;43.95;25.83;;;11.00;74.30;;;;;;5031858;28;20068;-75
2023/03/30 09:37:10;;;;;;;12.93;6.07;;;11.10;74.00;;;;;;5030125;28;20430;-76
2023/03/30 09:39:37;;;;;;;11.50;5.93;;;11.10;74.80;;;;;;5031156;28;20275;-75
2023/03/30 09:42:21;;;;;;;8.70;4.80;;;11.20;75.00;;;;;;5046331;28;20033;-76
2023/03/30 09:45:26;;;;;;;11.30;5.38;;;11.50;73.40;;;;;;5046221;28;20025;-76
2023/03/30 09:47:52;;;;;;;11.07;6.55;;;11.80;71.20;;;;;;5031428;28;20517;-76
2023/03/30 09:50:21;;;;;;;;;;;11.60;71.30;;;;;;5030371;28;20037;-76
2023/03/30 09:53:05;;;;;;;12.68;5.07;;;11.40;71.70;;;;;;5031272;28;19912;-76
2023/03/30 09:55:36;;;;;;;12.93;6.00;;;11.60;71.60;;;;;;5031318;28;20025;-76
2023/03/30 09:58:16;;;;;;;8.57;4.88;;;11.80;71.10;;;;;;5046493;28;20079;-77
2023/03/30 10:00:42;;;;;;;9.23;4.65;;;12.10;70.00;;;;;;5030400;28;20168;-77
2023/03/30 10:03:21;;;;;;;9.75;4.65;;;12.00;69.80;;;;;;5030757;28;20029;-77
2023/03/30 10:06:18;;;;;;;12.77;5.60;;;12.10;68.30;;;;;;5043625;28;20037;-75
2023/03/30 10:08:47;;;;;;;16.70;8.60;;;11.90;68.40;;;;;;5046294;28;20044;-77
2023/03/30 10:11:18;;;;;;;10.77;5.72;;;12.10;70.90;;;;;;5031115;28;20087;-77
2023/03/30 10:13:43;;;;;;;9.20;4.68;;;12.30;69.10;;;;;;5046325;28;20029;-77
2023/03/30 10:16:19;;;;;;;;;;;12.10;69.00;;;;;;5031502;28;20029;-76
2023/03/30 10:18:45;;;;;;;12.80;5.32;;;12.00;69.60;;;;;;5030649;28;19995;-76
2023/03/30 10:21:18;;;;;;;9.18;5.40;;;12.20;70.50;;;;;;5045388;28;20464;-77
2023/03/30 10:23:46;;;;;;;8.82;4.60;;;12.30;69.50;;;;;;5030697;28;20026;-76
2023/03/30 10:26:18;;;;;;;9.52;4.03;;;12.40;69.50;;;;;;5030566;28;20030;-77
2023/03/30 10:29:03;;;;;;;12.75;6.13;;;12.50;69.20;;;;;;5046001;28;20029;-76
2023/03/30 10:31:29;;;;;;;9.23;5.75;;;12.50;68.50;;;;;;5030339;28;20025;-77
2023/03/30 10:33:58;;;;;;;13.40;6.18;;;12.50;68.50;;;;;;5045962;28;20029;-76
2023/03/30 10:36:36;;;;;;;11.32;5.78;;;12.50;66.20;;;;;;5045643;28;20049;-79
2023/03/30 10:39:28;;;;;;;9.15;5.00;;;12.70;67.10;;;;;;5030652;28;20036;-76
2023/03/30 10:41:55;;;;;;;11.48;5.10;;;12.70;64.80;;;;;;5030348;28;20478;-75
2023/03/30 10:44:29;;;;;;;6.90;4.38;;;12.50;65.50;;;;;;5030011;28;20025;-76
2023/03/30 10:47:09;;;;;;;12.00;4.50;;;12.40;66.60;;;;;;5029141;28;20029;-77
2023/03/30 10:49:46;;;;;;;8.85;4.97;;;12.50;66.70;;;;;;5046098;28;20453;-78
2023/03/30 10:52:40;;;;;;;12.32;5.05;;;12.60;66.70;;;;;;5030113;28;20029;-78
2023/03/30 10:56:11;;;;;;;10.45;4.85;;;12.50;66.00;;;;;;5045527;28;20386;-77
2023/03/30 10:58:57;;;;;;;8.10;4.70;;;12.70;66.00;;;;;;4996636;28;20037;-75
2023/03/30 11:01:23;;;;;;;13.32;4.80;;;12.90;66.20;;;;;;5026959;28;20088;-77
2023/03/30 11:03:53;;;;;;;;;;;13.00;63.50;;;;;;5030024;28;20497;-77
2023/03/30 11:06:33;;;;;;;10.68;5.40;;;13.10;63.50;;;;;;5030173;28;19916;-76
2023/03/30 11:09:03;;;;;;;19.55;7.93;;;13.30;62.90;;;;;;5045493;28;20041;-76
2023/03/30 11:12:11;;;;;;;12.02;6.13;;;13.50;62.10;;;;;;5045223;28;20132;-77
2023/03/30 11:14:51;;;;;;;19.85;6.80;;;13.70;60.40;;;;;;5026780;28;20045;-75
2023/03/30 11:17:47;;;;;;;19.05;5.00;;;13.90;60.60;;;;;;5027064;28;20159;-75
2023/03/30 11:20:23;;;;;;;9.77;5.32;;;14.20;61.00;;;;;;5029176;28;20084;-77
2023/03/30 11:23:07;;;;;;;19.77;5.47;;;14.40;58.90;;;;;;5044902;28;20037;-77
2023/03/30 11:25:39;;;;;;;14.57;4.63;;;14.30;58.90;;;;;;5029874;28;20033;-79
2023/03/30 11:28:31;;;;;;;9.70;5.18;;;14.10;58.70;;;;;;5029429;28;20512;-76
2023/03/30 11:31:14;;;;;;;10.50;5.15;;;14.00;59.10;;;;;;5045553;28;20037;-79
2023/03/30 11:34:11;;;;;;;7.20;4.35;;;13.90;60.20;;;;;;5028535;28;20052;-80
2023/03/30 11:36:58;;;;;;;8.63;5.13;;;13.90;60.80;;;;;;5028928;28;20053;-79
2023/03/30 11:39:30;;;;;;;15.77;4.95;;;13.80;61.10;;;;;;5029053;28;20044;-79
2023/03/30 11:42:12;;;;;;;16.15;5.43;;;13.60;61.00;;;;;;5027911;28;20037;-79
2023/03/30 11:44:38;;;;;;;13.02;5.70;;;13.40;61.80;;;;;;5044418;28;20033;-79
2023/03/30 11:47:07;;;;;;;;;;;13.50;62.00;;;;;;5029741;28;20079;-77
2023/03/30 11:49:50;;;;;;;15.02;5.03;;;13.40;60.90;;;;;;5029083;28;19908;-77
2023/03/30 11:52:22;;;;;;;16.85;4.93;;;13.40;61.20;;;;;;5028905;28;20037;-77
2023/03/30 11:55:07;;;;;;;13.70;6.35;;;13.50;61.20;;;;;;5044214;28;20191;-76
2023/03/30 11:57:43;;;;;;;15.48;5.07;;;13.60;61.10;;;;;;5029016;28;20108;-77
2023/03/30 12:00:40;;;;;;;11.20;5.35;;;13.40;60.90;;;;;;5044410;28;20044;-76
2023/03/30 12:03:17;;;;;;;14.57;5.22;;;13.30;61.80;;;;;;5058481;28;20517;-76
2023/03/30 12:05:47;;;;;;;22.80;10.15;;;13.20;62.00;;;;;;5061306;28;20033;-75
2023/03/30 12:08:45;;;;;;;20.73;11.25;;;12.90;61.60;;;;;;5042408;28;20025;-76
2023/03/30 12:11:34;;;;;;;12.23;7.28;;;12.80;63.20;;;;;;5029672;28;20049;-77
2023/03/30 12:14:01;;;;;;;11.18;5.47;;;12.80;64.10;;;;;;5044842;28;20091;-77
2023/03/30 12:16:36;;;;;;;12.23;5.50;;;12.90;63.20;;;;;;5028258;28;20064;-77
2023/03/30 12:19:21;;;;;;;8.93;4.63;;;12.80;63.90;;;;;;5028865;28;20029;-76
2023/03/30 12:22:09;;;;;;;11.27;5.82;;;12.80;64.60;;;;;;5028488;28;20470;-75
2023/03/30 12:25:01;;;;;;;13.60;6.35;;;12.80;64.60;;;;;;5046563;28;20028;-77
2023/03/30 12:27:30;;;;;;;12.27;6.80;;;12.70;64.20;;;;;;5017445;28;20696;-77
2023/03/30 12:30:11;;;;;;;13.63;6.60;;;12.50;65.00;;;;;;5043647;28;20079;-76
2023/03/30 12:32:37;;;;;;;9.48;5.53;;;12.40;65.80;;;;;;5043588;28;20611;-75
2023/03/30 12:35:23;;;;;;;;;;;12.30;66.70;;;;;;5028791;28;20061;-76
2023/03/30 12:37:49;;;;;;;69.40;56.42;;;12.20;68.40;;;;;;5027998;28;19932;-76
2023/03/30 12:40:21;;;;;;;21.73;14.77;;;12.20;68.70;;;;;;5027812;28;20720;-76
2023/03/30 12:43:07;;;;;;;18.88;16.27;;;12.30;69.70;;;;;;5027619;28;21183;-76
2023/03/30 12:45:34;;;;;;;13.00;9.25;;;12.30;69.60;;;;;;5031886;28;20033;-77
2023/03/30 12:48:30;;;;;;;15.88;10.18;;;12.30;69.70;;;;;;5034919;28;20026;-77
2023/03/30 12:51:30;;;;;;;13.73;8.60;;;12.30;69.60;;;;;;5034873;28;20541;-78
2023/03/30 12:54:19;;;;;;;10.60;6.38;;;12.30;68.90;;;;;;5034843;28;20057;-76
2023/03/30 12:57:23;;;;;;;22.17;6.93;;;12.30;69.70;;;;;;5049764;28;20041;-77
2023/03/30 13:00:14;;;;;;;16.63;6.50;;;12.40;69.30;;;;;;5049741;28;20029;-76
2023/03/30 13:03:08;;;;;;;16.35;5.97;;;12.30;69.80;;;;;;5034676;28;20037;-77
2023/03/30 13:05:38;;;;;;;14.40;6.65;;;12.40;70.60;;;;;;5034609;28;20032;-78
2023/03/30 13:08:08;;;;;;;10.75;6.45;;;12.50;70.50;;;;;;5050081;28;20036;-77
2023/03/30 13:10:40;;;;;;;13.93;7.50;;;12.50;70.50;;;;;;5034719;28;20022;-77
2023/03/30 13:13:35;;;;;;;14.95;7.50;;;12.70;71.00;;;;;;5034567;28;20457;-77
2023/03/30 13:16:01;;;;;;;25.00;6.20;;;12.90;70.70;;;;;;5034428;28;20459;-77
2023/03/30 13:18:26;;;;;;;;;;;13.10;69.50;;;;;;5034859;28;20033;-76
2023/03/30 13:20:55;;;;;;;14.52;7.63;;;13.30;68.80;;;;;;5050063;28;19916;-77
2023/03/30 13:23:21;;;;;;;12.93;7.35;;;13.30;67.70;;;;;;5034565;28;20437;-77
2023/03/30 13:25:59;;;;;;;;;;;13.20;67.20;;;;;;5050667;28;20033;-77